Time,TemperatureF,DewpointF,PressureIn,WindDirection,WindDirectionDegrees,WindSpeedMPH,WindSpeedGustMPH,Humidity,HourlyPrecipIn,Conditions,Clouds,dailyrainin,SolarRadiationWatts/m^2,SoftwareType,DateUTC
2013-08-18 00:09:00,54.5,53.0,29.91,NNW,339,1.0,2.0,93,0.00,,,0.00,0,weatherlink.com 1.10,2013-08-18 07:09:00,
2013-08-18 00:24:00,54.6,53.0,29.91,NNW,339,0.0,3.0,94,0.00,,,0.00,0,weatherlink.com 1.10,2013-08-18 07:24:00,
2013-08-18 00:39:00,54.3,53.0,29.91,NNW,339,2.0,2.0,94,0.00,,,0.00,0,weatherlink.com 1.10,2013-08-18 07:39:00,
2013-08-18 00:54:00,54.1,53.0,29.91,NNW,339,0.0,3.0,94,0.00,,,0.00,0,weatherlink.com 1.10,2013-08-18 07:54:00,
2013-08-18 01:09:00,53.6,52.0,29.90,NNW,339,2.0,2.0,94,0.00,,,0.00,0,weatherlink.com 1.10,2013-08-18 08:09:00,
2013-08-18 01:24:00,53.7,52.0,29.89,NNW,339,0.0,1.0,95,0.00,,,0.00,0,weatherlink.com 1.10,2013-08-18 08:24:00,
2013-08-18 01:39:00,53.7,52.0,29.89,NNW,339,0.0,1.0,95,0.00,,,0.00,0,weatherlink.com 1.10,2013-08-18 08:39:00,
2013-08-18 01:54:00,53.6,52.0,29.89,NNW,339,0.0,2.0,95,0.00,,,0.00,0,weatherlink.com 1.10,2013-08-18 08:54:00,
2013-08-18 02:09:00,53.6,52.0,29.89,NNW,339,1.0,1.0,95,0.00,,,0.00,0,weatherlink.com 1.10,2013-08-18 09:09:00,
2013-08-18 02:24:00,54.1,53.0,29.88,NNW,339,0.0,2.0,95,0.00,,,0.00,0,weatherlink.com 1.10,2013-08-18 09:24:00,
2013-08-18 02:39:00,54.4,53.0,29.88,NNW,339,1.0,4.0,95,0.00,,,0.00,0,weatherlink.com 1.10,2013-08-18 09:39:00,
2013-08-18 02:54:00,54.3,53.0,29.88,NNW,339,0.0,3.0,95,0.00,,,0.00,0,weatherlink.com 1.10,2013-08-18 09:54:00,
2013-08-18 03:09:00,54.4,53.0,29.88,NNW,339,0.0,2.0,95,0.00,,,0.00,0,weatherlink.com 1.10,2013-08-18 10:09:00,
2013-08-18 03:24:00,54.1,53.0,29.88,NNW,339,0.0,2.0,95,0.00,,,0.00,0,weatherlink.com 1.10,2013-08-18 10:24:00,
2013-08-18 03:39:00,53.9,53.0,29.88,NNW,339,0.0,0.0,95,0.00,,,0.00,0,weatherlink.com 1.10,2013-08-18 10:39:00,
2013-08-18 03:55:00,53.5,52.0,29.88,NNW,339,0.0,0.0,95,0.00,,,0.00,0,weatherlink.com 1.10,2013-08-18 10:55:00,
2013-08-18 04:10:00,53.6,52.0,29.88,NNW,339,2.0,4.0,95,0.00,,,0.00,0,weatherlink.com 1.10,2013-08-18 11:10:00,
2013-08-18 04:25:00,53.5,52.0,29.88,NNW,339,0.0,1.0,95,0.00,,,0.00,0,weatherlink.com 1.10,2013-08-18 11:25:00,
2013-08-18 04:40:00,52.7,51.0,29.89,NNW,339,1.0,2.0,95,0.00,,,0.00,0,weatherlink.com 1.10,2013-08-18 11:40:00,
2013-08-18 04:55:00,52.6,51.0,29.89,SE,138,4.0,7.0,95,0.00,,,0.00,0,weatherlink.com 1.10,2013-08-18 11:55:00,
2013-08-18 05:10:00,53.9,53.0,29.89,SE,128,1.0,5.0,96,0.00,,,0.00,0,weatherlink.com 1.10,2013-08-18 12:10:00,
2013-08-18 05:25:00,54.2,53.0,29.89,SE,139,2.0,5.0,95,0.00,,,0.00,0,weatherlink.com 1.10,2013-08-18 12:25:00,
2013-08-18 05:40:00,53.9,53.0,29.90,SE,139,0.0,3.0,95,0.00,,,0.00,0,weatherlink.com 1.10,2013-08-18 12:40:00,
2013-08-18 05:55:00,53.4,52.0,29.90,SE,139,0.0,2.0,95,0.00,,,0.00,0,weatherlink.com 1.10,2013-08-18 12:55:00,
2013-08-18 06:10:00,52.6,51.0,29.90,SE,139,0.0,1.0,95,0.00,,,0.00,0,weatherlink.com 1.10,2013-08-18 13:10:00,
2013-08-18 06:25:00,52.2,51.0,29.91,SE,139,3.0,3.0,95,0.00,,,0.00,0,weatherlink.com 1.10,2013-08-18 13:25:00,
2013-08-18 06:40:00,51.7,50.0,29.91,SE,139,0.0,2.0,95,0.00,,,0.00,9,weatherlink.com 1.10,2013-08-18 13:40:00,
2013-08-18 06:55:00,51.7,50.0,29.92,SE,139,0.0,0.0,95,0.00,,,0.00,19,weatherlink.com 1.10,2013-08-18 13:55:00,
2013-08-18 07:10:00,51.5,50.0,29.92,SE,139,0.0,1.0,95,0.00,,,0.00,49,weatherlink.com 1.10,2013-08-18 14:10:00,
2013-08-18 07:25:00,52.7,51.0,29.93,SE,139,0.0,1.0,95,0.00,,,0.00,97,weatherlink.com 1.10,2013-08-18 14:25:00,
2013-08-18 07:40:00,54.6,54.0,29.93,SE,139,1.0,1.0,96,0.00,,,0.00,146,weatherlink.com 1.10,2013-08-18 14:40:00,
2013-08-18 07:55:00,55.5,54.0,29.93,South,178,1.0,4.0,94,0.00,,,0.00,195,weatherlink.com 1.10,2013-08-18 14:55:00,
2013-08-18 08:10:00,57.6,56.0,29.94,South,178,0.0,2.0,94,0.00,,,0.00,244,weatherlink.com 1.10,2013-08-18 15:10:00,
2013-08-18 08:25:00,59.8,57.0,29.94,WSW,237,3.0,4.0,89,0.00,,,0.00,292,weatherlink.com 1.10,2013-08-18 15:25:00,
2013-08-18 08:40:00,59.0,55.0,29.94,West,279,5.0,6.0,85,0.00,,,0.00,355,weatherlink.com 1.10,2013-08-18 15:40:00,
2013-08-18 08:55:00,58.9,54.0,29.94,West,278,4.0,6.0,85,0.00,,,0.00,401,weatherlink.com 1.10,2013-08-18 15:55:00,
2013-08-18 09:10:00,61.4,56.0,29.94,West,267,1.0,5.0,83,0.01,,,0.01,443,weatherlink.com 1.10,2013-08-18 16:10:00,
2013-08-18 09:25:00,63.3,56.0,29.94,West,263,2.0,5.0,78,0.01,,,0.01,497,weatherlink.com 1.10,2013-08-18 16:25:00,
2013-08-18 09:41:00,64.8,56.0,29.94,West,263,2.0,4.0,74,0.01,,,0.01,547,weatherlink.com 1.10,2013-08-18 16:41:00,
2013-08-18 09:56:00,66.6,57.0,29.94,West,263,2.0,4.0,71,0.01,,,0.01,591,weatherlink.com 1.10,2013-08-18 16:56:00,
2013-08-18 10:11:00,67.9,57.0,29.94,West,263,2.0,4.0,68,0.00,,,0.01,635,weatherlink.com 1.10,2013-08-18 17:11:00,
2013-08-18 10:26:00,67.7,56.0,29.94,West,263,2.0,4.0,66,0.00,,,0.01,682,weatherlink.com 1.10,2013-08-18 17:26:00,
2013-08-18 10:41:00,68.6,56.0,29.95,West,263,3.0,4.0,64,0.00,,,0.01,707,weatherlink.com 1.10,2013-08-18 17:41:00,
2013-08-18 10:56:00,67.8,56.0,29.95,West,262,3.0,4.0,66,0.00,,,0.01,742,weatherlink.com 1.10,2013-08-18 17:56:00,
2013-08-18 11:11:00,66.7,56.0,29.95,SW,223,4.0,5.0,68,0.00,,,0.01,773,weatherlink.com 1.10,2013-08-18 18:11:00,
2013-08-18 11:26:00,67.4,56.0,29.95,SSW,197,3.0,6.0,67,0.00,,,0.01,800,weatherlink.com 1.10,2013-08-18 18:26:00,
2013-08-18 11:41:00,67.4,56.0,29.95,SSW,196,3.0,5.0,67,0.00,,,0.01,824,weatherlink.com 1.10,2013-08-18 18:41:00,
2013-08-18 11:56:00,67.6,56.0,29.95,SSW,198,3.0,5.0,67,0.00,,,0.01,824,weatherlink.com 1.10,2013-08-18 18:56:00,
2013-08-18 12:11:00,67.2,56.0,29.95,SSW,198,4.0,5.0,67,0.00,,,0.01,835,weatherlink.com 1.10,2013-08-18 19:11:00,
2013-08-18 12:26:00,67.0,56.0,29.95,SSW,198,3.0,5.0,67,0.00,,,0.01,856,weatherlink.com 1.10,2013-08-18 19:26:00,
2013-08-18 12:41:00,66.5,56.0,29.95,SSW,198,4.0,6.0,69,0.00,,,0.01,863,weatherlink.com 1.10,2013-08-18 19:41:00,
2013-08-18 12:56:00,66.5,56.0,29.95,SSW,198,3.0,5.0,68,0.00,,,0.01,870,weatherlink.com 1.10,2013-08-18 19:56:00,
2013-08-18 13:11:00,66.6,56.0,29.95,SSW,198,2.0,6.0,68,0.00,,,0.01,865,weatherlink.com 1.10,2013-08-18 20:11:00,
2013-08-18 13:26:00,66.4,56.0,29.95,SSW,198,3.0,4.0,69,0.00,,,0.01,868,weatherlink.com 1.10,2013-08-18 20:26:00,
2013-08-18 13:41:00,65.8,56.0,29.94,SSW,198,2.0,4.0,70,0.00,,,0.01,870,weatherlink.com 1.10,2013-08-18 20:41:00,
2013-08-18 13:56:00,65.6,56.0,29.94,SSW,198,4.0,5.0,71,0.00,,,0.01,860,weatherlink.com 1.10,2013-08-18 20:56:00,
2013-08-18 14:11:00,65.0,56.0,29.93,SSW,198,2.0,5.0,72,0.00,,,0.01,849,weatherlink.com 1.10,2013-08-18 21:11:00,
2013-08-18 14:26:00,65.4,56.0,29.93,SSW,200,4.0,5.0,72,0.00,,,0.01,831,weatherlink.com 1.10,2013-08-18 21:26:00,
2013-08-18 14:41:00,64.9,56.0,29.93,SSW,200,3.0,5.0,73,0.00,,,0.01,812,weatherlink.com 1.10,2013-08-18 21:41:00,
2013-08-18 14:56:00,64.8,56.0,29.93,SSW,200,3.0,5.0,72,0.00,,,0.01,791,weatherlink.com 1.10,2013-08-18 21:56:00,
2013-08-18 15:11:00,64.1,56.0,29.92,SSW,209,3.0,5.0,74,0.00,,,0.01,759,weatherlink.com 1.10,2013-08-18 22:11:00,
2013-08-18 15:26:00,64.5,56.0,29.91,SW,233,4.0,6.0,75,0.00,,,0.01,733,weatherlink.com 1.10,2013-08-18 22:26:00,
2013-08-18 15:41:00,65.0,57.0,29.91,SW,233,4.0,6.0,75,0.00,,,0.01,698,weatherlink.com 1.10,2013-08-18 22:41:00,
2013-08-18 15:56:00,64.2,56.0,29.90,SW,233,3.0,6.0,75,0.00,,,0.01,661,weatherlink.com 1.10,2013-08-18 22:56:00,
2013-08-18 16:11:00,65.0,57.0,29.89,SW,233,2.0,6.0,75,0.00,,,0.01,621,weatherlink.com 1.10,2013-08-18 23:11:00,
2013-08-18 16:26:00,65.2,57.0,29.89,WSW,239,4.0,6.0,74,0.00,,,0.01,575,weatherlink.com 1.10,2013-08-18 23:26:00,
2013-08-18 16:41:00,65.7,57.0,29.88,West,266,1.0,6.0,74,0.00,,,0.01,533,weatherlink.com 1.10,2013-08-18 23:41:00,
2013-08-18 16:56:00,65.7,56.0,29.88,West,263,4.0,5.0,72,0.00,,,0.01,492,weatherlink.com 1.10,2013-08-18 23:56:00,
2013-08-18 17:11:00,64.1,56.0,29.87,WSW,253,5.0,6.0,74,0.00,,,0.01,443,weatherlink.com 1.10,2013-08-19 00:11:00,
2013-08-18 17:26:00,63.5,56.0,29.86,WSW,247,2.0,4.0,76,0.00,,,0.01,396,weatherlink.com 1.10,2013-08-19 00:26:00,
2013-08-18 17:42:00,63.8,56.0,29.86,WSW,247,2.0,4.0,76,0.00,,,0.01,350,weatherlink.com 1.10,2013-08-19 00:42:00,
2013-08-18 17:57:00,63.5,56.0,29.85,WSW,243,1.0,4.0,76,0.00,,,0.01,302,weatherlink.com 1.10,2013-08-19 00:57:00,
2013-08-18 18:12:00,63.6,56.0,29.85,WSW,243,2.0,4.0,76,0.00,,,0.01,255,weatherlink.com 1.10,2013-08-19 01:12:00,
2013-08-18 18:27:00,64.1,56.0,29.85,WSW,243,2.0,4.0,76,0.00,,,0.01,209,weatherlink.com 1.10,2013-08-19 01:27:00,
2013-08-18 18:42:00,63.3,55.0,29.84,WSW,243,1.0,4.0,75,0.00,,,0.01,165,weatherlink.com 1.10,2013-08-19 01:42:00,
2013-08-18 18:57:00,62.0,54.0,29.83,WSW,243,0.0,2.0,76,0.00,,,0.01,123,weatherlink.com 1.10,2013-08-19 01:57:00,
2013-08-18 19:12:00,59.9,54.0,29.83,SW,223,2.0,4.0,80,0.00,,,0.01,81,weatherlink.com 1.10,2013-08-19 02:12:00,
2013-08-18 19:27:00,59.5,54.0,29.83,SW,223,3.0,4.0,82,0.00,,,0.01,46,weatherlink.com 1.10,2013-08-19 02:27:00,
2013-08-18 19:42:00,59.7,54.0,29.83,SW,223,2.0,2.0,82,0.00,,,0.01,23,weatherlink.com 1.10,2013-08-19 02:42:00,
2013-08-18 19:57:00,59.2,54.0,29.83,SW,223,0.0,1.0,83,0.00,,,0.01,9,weatherlink.com 1.10,2013-08-19 02:57:00,
2013-08-18 20:12:00,59.0,54.0,29.83,SW,223,0.0,0.0,84,0.00,,,0.01,0,weatherlink.com 1.10,2013-08-19 03:12:00,
2013-08-18 20:27:00,58.9,54.0,29.83,SW,223,0.0,0.0,84,0.00,,,0.01,0,weatherlink.com 1.10,2013-08-19 03:27:00,
2013-08-18 20:42:00,58.4,54.0,29.83,SW,223,0.0,1.0,84,0.00,,,0.01,0,weatherlink.com 1.10,2013-08-19 03:42:00,
2013-08-18 20:57:00,58.2,54.0,29.83,SW,223,0.0,0.0,85,0.00,,,0.01,0,weatherlink.com 1.10,2013-08-19 03:57:00,
2013-08-18 21:12:00,57.4,53.0,29.83,SW,223,0.0,1.0,86,0.00,,,0.01,0,weatherlink.com 1.10,2013-08-19 04:12:00,
2013-08-18 21:27:00,57.2,53.0,29.84,SW,223,0.0,0.0,87,0.00,,,0.01,0,weatherlink.com 1.10,2013-08-19 04:27:00,
2013-08-18 21:42:00,56.9,53.0,29.85,SW,223,0.0,1.0,87,0.00,,,0.01,0,weatherlink.com 1.10,2013-08-19 04:42:00,
2013-08-18 21:57:00,56.2,52.0,29.85,SW,223,1.0,1.0,87,0.00,,,0.01,0,weatherlink.com 1.10,2013-08-19 04:57:00,
2013-08-18 22:12:00,55.7,53.0,29.85,SW,223,0.0,1.0,89,0.00,,,0.01,0,weatherlink.com 1.10,2013-08-19 05:12:00,
2013-08-18 22:27:00,55.7,53.0,29.85,SW,223,0.0,1.0,90,0.00,,,0.01,0,weatherlink.com 1.10,2013-08-19 05:27:00,
2013-08-18 22:42:00,55.8,53.0,29.85,SW,223,0.0,0.0,90,0.00,,,0.01,0,weatherlink.com 1.10,2013-08-19 05:42:00,
2013-08-18 23:18:00,55.9,53.0,29.84,SW,223,0.0,1.0,90,0.00,,,0.01,0,weatherlink.com 1.10,2013-08-19 06:18:00,
2013-08-18 23:27:00,55.8,53.0,29.85,SW,223,0.0,1.0,90,0.00,,,0.01,0,weatherlink.com 1.10,2013-08-19 06:27:00,
2013-08-18 23:42:00,55.7,53.0,29.85,SW,223,0.0,1.0,90,0.00,,,0.01,0,weatherlink.com 1.10,2013-08-19 06:42:00,
2013-08-18 23:57:00,55.6,53.0,29.85,SW,223,0.0,0.0,91,0.00,,,0.01,0,weatherlink.com 1.10,2013-08-19 06:57:00,